Time;durP1;ratioP1;P1;durP2;ratioP2;P2;SDS_P1;SDS_P2;PMS_P1;PMS_P2;Temp;Humidity;BMP_temperature;BMP_pressure;BME280_temperature;BME280_humidity;BME280_pressure;Samples;Min_cycle;Max_cycle;Signal;HPM_P1;HPM_P2
2021/12/16 00:09:19;;;;;;;30.80;21.00;;;-0.60;99.90;;;;;;5037796;28;20263;-78
2021/12/16 00:35:46;;;;;;;26.93;20.10;;;-1.30;99.90;;;;;;5037258;28;20199;-78
2021/12/16 00:38:12;;;;;;;28.40;20.73;;;-1.40;99.90;;;;;;5037136;28;20254;-79
2021/12/16 00:40:40;;;;;;;35.67;22.53;;;-1.60;99.90;;;;;;5036831;28;20577;-79
2021/12/16 00:43:19;;;;;;;27.63;20.80;;;-1.10;99.90;;;;;;5036978;28;20171;-78
2021/12/16 00:48:24;;;;;;;28.93;20.90;;;0.10;99.90;;;;;;5036198;28;20208;-77
2021/12/16 00:56:14;;;;;;;25.07;20.43;;;-0.70;99.90;;;;;;5036637;28;20233;-73
2021/12/16 00:58:48;;;;;;;24.70;19.77;;;-1.10;99.90;;;;;;5036671;28;20200;-78
2021/12/16 01:07:12;;;;;;;30.93;20.93;;;-0.90;99.90;;;;;;5036476;28;20494;-78
2021/12/16 01:35:01;;;;;;;32.83;23.40;;;-1.00;99.90;;;;;;5036198;28;20191;-73
2021/12/16 01:50:37;;;;;;;30.53;20.57;;;-0.40;99.90;;;;;;5035884;28;20518;-78
2021/12/16 01:53:34;;;;;;;32.47;21.43;;;-0.40;99.90;;;;;;5035541;28;20179;-77
2021/12/16 01:56:15;;;;;;;30.73;20.37;;;-0.70;99.90;;;;;;5035682;28;20207;-72
2021/12/16 01:58:41;;;;;;;36.03;20.83;;;-0.70;99.90;;;;;;5034134;28;20265;-70
2021/12/16 02:01:16;;;;;;;31.33;21.63;;;0.00;99.90;;;;;;5035793;28;20586;-72
2021/12/16 02:03:49;;;;;;;26.80;20.80;;;-0.30;99.90;;;;;;5035736;28;20590;-77
2021/12/16 02:08:46;;;;;;;31.93;23.53;;;-0.30;99.90;;;;;;5035690;28;20182;-70
2021/12/16 02:27:23;;;;;;;30.10;20.00;;;-0.90;99.90;;;;;;5035805;28;20480;-77
2021/12/16 02:31:14;;;;;;;29.37;22.23;;;-0.10;99.90;;;;;;5035659;28;20169;-72
2021/12/16 02:33:48;;;;;;;26.57;19.73;;;-2.10;99.90;;;;;;5035220;28;20178;-69
2021/12/16 02:36:35;;;;;;;28.87;22.47;;;-0.70;99.90;;;;;;5034925;28;20630;-71
2021/12/16 02:39:23;;;;;;;35.30;21.07;;;-0.30;99.90;;;;;;5035136;28;20205;-78
2021/12/16 02:41:59;;;;;;;26.57;20.93;;;-0.70;99.90;;;;;;5035204;28;20863;-70
2021/12/16 02:44:35;;;;;;;29.00;22.23;;;-0.70;99.90;;;;;;5035340;28;20159;-79
2021/12/16 02:49:53;;;;;;;32.27;21.97;;;-0.50;99.90;;;;;;5034879;28;20733;-75
2021/12/16 02:52:23;;;;;;;23.30;18.70;;;0.00;99.90;;;;;;5035122;28;20178;-70
2021/12/16 02:54:49;;;;;;;28.23;21.47;;;-0.30;99.90;;;;;;5035282;28;20586;-75
2021/12/16 02:57:16;;;;;;;29.27;21.63;;;-0.60;99.90;;;;;;5035287;28;20219;-73
2021/12/16 02:59:44;;;;;;;29.77;21.13;;;-0.80;99.90;;;;;;5035189;28;20221;-71
2021/12/16 03:02:14;;;;;;;26.30;21.27;;;-0.40;99.90;;;;;;5035104;28;20171;-71
2021/12/16 03:04:42;;;;;;;30.13;23.10;;;-0.80;99.90;;;;;;5034939;28;20560;-69
2021/12/16 03:07:11;;;;;;;32.50;24.10;;;-0.70;99.90;;;;;;5035112;28;20172;-78
2021/12/16 03:15:19;;;;;;;23.57;18.87;;;-0.60;99.90;;;;;;5038800;28;20256;-69
2021/12/16 03:23:12;;;;;;;29.83;22.00;;;-0.60;99.90;;;;;;5038548;28;20179;-69
2021/12/16 03:37:14;;;;;;;36.70;25.57;;;-0.10;99.90;;;;;;5041188;28;20179;-71
2021/12/16 03:39:47;;;;;;;28.63;21.40;;;-0.20;99.90;;;;;;5038070;28;20192;-73
2021/12/16 03:42:22;;;;;;;26.07;21.60;;;-0.30;99.90;;;;;;5038204;28;20187;-71
2021/12/16 03:44:53;;;;;;;27.73;22.80;;;-0.40;99.90;;;;;;5037130;28;20282;-73
2021/12/16 03:47:26;;;;;;;26.97;21.23;;;-0.30;99.90;;;;;;5037913;28;20170;-72
2021/12/16 03:49:52;;;;;;;27.97;21.63;;;-0.20;99.90;;;;;;5038097;28;20236;-74
2021/12/16 03:52:18;;;;;;;26.90;22.23;;;0.30;99.90;;;;;;5037848;28;20168;-75
2021/12/16 03:54:51;;;;;;;27.43;21.40;;;0.10;99.90;;;;;;5038066;28;20183;-75
2021/12/16 03:57:22;;;;;;;29.83;22.90;;;-0.30;99.90;;;;;;5037970;28;20198;-70
2021/12/16 03:59:48;;;;;;;34.03;23.33;;;-0.80;99.90;;;;;;5037958;28;20204;-70
2021/12/16 04:02:22;;;;;;;27.23;21.50;;;-0.70;99.90;;;;;;5037677;28;20320;-74
2021/12/16 04:04:51;;;;;;;26.80;20.77;;;-0.60;99.90;;;;;;5037806;28;20164;-77
2021/12/16 04:07:22;;;;;;;26.03;20.50;;;-0.60;99.90;;;;;;5036912;28;20477;-77
2021/12/16 04:09:50;;;;;;;30.03;20.63;;;-0.70;99.90;;;;;;5037709;28;20176;-78
2021/12/16 04:12:20;;;;;;;31.03;22.17;;;-0.70;99.90;;;;;;5037744;28;20183;-75
2021/12/16 04:14:49;;;;;;;30.13;22.57;;;-0.60;99.90;;;;;;5038012;28;20175;-77
2021/12/16 04:17:16;;;;;;;27.63;23.33;;;-0.70;99.90;;;;;;5036204;28;20183;-78
2021/12/16 04:19:42;;;;;;;31.57;23.70;;;-0.80;99.90;;;;;;5036582;28;20219;-74
2021/12/16 04:22:11;;;;;;;29.13;21.43;;;-0.70;99.90;;;;;;5036863;28;20169;-75
2021/12/16 04:24:39;;;;;;;26.50;22.17;;;-0.40;99.90;;;;;;5036549;28;20586;-77
2021/12/16 04:27:06;;;;;;;28.97;22.50;;;-0.10;99.90;;;;;;5037393;28;20251;-76
2021/12/16 04:29:32;;;;;;;26.37;22.47;;;0.20;99.90;;;;;;5036377;28;20172;-74
2021/12/16 04:31:59;;;;;;;32.23;21.77;;;0.20;99.90;;;;;;5036991;28;20568;-74
2021/12/16 04:34:25;;;;;;;30.40;21.03;;;0.00;99.90;;;;;;5036055;28;20565;-74
2021/12/16 04:36:52;;;;;;;28.17;22.37;;;0.20;99.90;;;;;;5037233;28;20183;-72
2021/12/16 04:39:23;;;;;;;30.53;23.17;;;0.40;99.90;;;;;;5037103;28;20196;-69
2021/12/16 04:41:52;;;;;;;29.93;22.13;;;0.20;99.90;;;;;;5037098;28;20177;-76
2021/12/16 04:44:18;;;;;;;28.97;22.03;;;0.40;99.90;;;;;;5035869;28;20565;-72
2021/12/16 04:46:46;;;;;;;28.20;21.60;;;0.30;99.90;;;;;;5036711;28;20556;-71
2021/12/16 04:49:14;;;;;;;30.43;20.60;;;0.30;99.90;;;;;;5036989;28;20172;-75
2021/12/16 04:51:47;;;;;;;28.20;21.13;;;0.40;99.90;;;;;;5036786;28;20184;-69
2021/12/16 04:54:14;;;;;;;31.97;22.07;;;0.30;99.90;;;;;;5036985;28;20553;-69
2021/12/16 04:56:41;;;;;;;31.03;22.30;;;0.20;99.90;;;;;;5036675;28;20475;-70
2021/12/16 04:59:09;;;;;;;32.77;20.33;;;0.20;99.90;;;;;;5035703;28;20293;-70
2021/12/16 05:01:36;;;;;;;29.17;20.87;;;-1.70;99.90;;;;;;5036187;28;20464;-75
2021/12/16 05:04:02;;;;;;;29.10;22.47;;;-1.60;99.90;;;;;;5036769;28;20513;-75
2021/12/16 05:06:27;;;;;;;27.60;21.60;;;-1.20;99.90;;;;;;5035487;28;20271;-70
2021/12/16 05:08:53;;;;;;;28.10;22.43;;;-1.40;99.90;;;;;;5036696;28;20258;-70
2021/12/16 05:11:19;;;;;;;31.83;22.47;;;-1.50;99.90;;;;;;5036300;28;20576;-75
2021/12/16 05:13:46;;;;;;;27.97;22.03;;;-1.70;99.90;;;;;;5036502;28;20639;-72
2021/12/16 05:16:13;;;;;;;31.20;22.77;;;-1.60;99.90;;;;;;5035136;28;20186;-73
2021/12/16 05:18:39;;;;;;;29.87;21.37;;;-1.00;99.90;;;;;;5036231;28;20193;-73
2021/12/16 05:21:13;;;;;;;30.27;23.27;;;-1.20;99.90;;;;;;5036433;28;20172;-75
2021/12/16 05:24:40;;;;;;;29.30;21.33;;;-1.60;99.90;;;;;;5036240;28;20256;-73
2021/12/16 05:26:34;;;;;;;34.40;24.50;;;-1.30;99.90;;;;;;5039773;28;20188;-73
2021/12/16 05:29:00;;;;;;;31.60;24.63;;;-1.30;99.90;;;;;;5036141;28;20169;-78
2021/12/16 05:31:27;;;;;;;31.17;24.23;;;-1.20;99.90;;;;;;5036498;28;20230;-79
2021/12/16 05:33:55;;;;;;;37.93;23.63;;;-1.50;99.90;;;;;;5035556;28;20243;-79
2021/12/16 05:36:22;;;;;;;31.20;23.50;;;-1.00;99.90;;;;;;5035084;28;20199;-79
2021/12/16 05:38:48;;;;;;;31.17;22.27;;;-0.90;99.90;;;;;;5036031;28;20223;-79
2021/12/16 05:41:18;;;;;;;32.07;22.13;;;-0.70;99.90;;;;;;5036107;28;20714;-75
2021/12/16 05:43:44;;;;;;;29.77;24.37;;;-0.80;99.90;;;;;;5035808;28;20195;-78
2021/12/16 05:46:13;;;;;;;38.37;22.43;;;-0.40;99.90;;;;;;5035955;28;20251;-79
2021/12/16 05:48:42;;;;;;;33.17;26.63;;;-0.50;99.90;;;;;;5035936;28;20168;-73
2021/12/16 05:51:16;;;;;;;36.47;23.10;;;-0.80;99.90;;;;;;5035794;28;20190;-76
2021/12/16 05:53:44;;;;;;;33.57;23.40;;;-0.60;99.90;;;;;;5036127;28;20182;-69
2021/12/16 05:56:10;;;;;;;33.50;22.97;;;0.00;99.90;;;;;;5035839;28;20473;-70
2021/12/16 05:58:37;;;;;;;28.13;21.27;;;0.20;99.90;;;;;;5034244;28;20179;-69
2021/12/16 06:01:08;;;;;;;25.70;20.63;;;0.10;99.90;;;;;;5035962;28;20180;-70
2021/12/16 06:03:35;;;;;;;39.80;21.90;;;0.20;99.90;;;;;;5035615;28;20467;-69
2021/12/16 06:06:02;;;;;;;30.63;22.13;;;0.00;99.90;;;;;;5035764;28;20168;-69
2021/12/16 06:08:28;;;;;;;30.93;24.87;;;0.20;99.90;;;;;;5035809;28;20457;-68
2021/12/16 06:13:28;;;;;;;41.07;24.43;;;0.30;99.90;;;;;;5035299;28;20247;-69
2021/12/16 06:29:01;;;;;;;29.93;23.23;;;-0.30;99.90;;;;;;5035217;28;20576;-75
2021/12/16 06:31:27;;;;;;;27.30;20.60;;;-0.40;99.90;;;;;;5035383;28;20576;-73
2021/12/16 06:33:53;;;;;;;31.80;23.37;;;-0.50;99.90;;;;;;5035416;28;20651;-70
2021/12/16 06:36:19;;;;;;;28.80;21.53;;;-0.50;99.90;;;;;;5035364;28;20271;-73
2021/12/16 06:38:45;;;;;;;34.57;23.30;;;-0.60;99.90;;;;;;5035250;28;20176;-75
2021/12/16 06:41:10;;;;;;;30.03;23.43;;;-0.20;99.90;;;;;;5035688;28;20464;-76
2021/12/16 06:43:37;;;;;;;29.47;23.67;;;-0.60;99.90;;;;;;5034844;28;20175;-72
2021/12/16 06:46:07;;;;;;;33.30;22.50;;;-0.90;99.90;;;;;;5037590;28;20587;-78
2021/12/16 06:48:36;;;;;;;30.63;23.63;;;-1.00;99.90;;;;;;5039308;28;20181;-69
2021/12/16 06:51:08;;;;;;;32.43;21.80;;;-1.10;99.90;;;;;;5039070;28;20183;-69
2021/12/16 06:53:50;;;;;;;25.20;21.23;;;-0.80;99.90;;;;;;5039348;28;20498;-69
2021/12/16 06:56:33;;;;;;;27.80;21.43;;;-1.10;99.90;;;;;;5038829;28;20191;-73
2021/12/16 06:59:09;;;;;;;35.37;22.20;;;-1.00;99.90;;;;;;5039036;28;20554;-78
2021/12/16 07:04:04;;;;;;;28.90;23.03;;;-0.60;99.90;;;;;;5037857;28;20184;-72
2021/12/16 07:06:32;;;;;;;33.97;21.27;;;-0.30;99.90;;;;;;5034090;28;20180;-70
2021/12/16 07:09:03;;;;;;;28.73;22.43;;;-0.40;99.90;;;;;;5026557;28;20188;-69
2021/12/16 07:11:30;;;;;;;29.60;20.93;;;-0.20;99.90;;;;;;5018631;28;20174;-68
2021/12/16 07:13:58;;;;;;;36.63;22.77;;;1.90;99.90;;;;;;5019038;28;20160;-68
2021/12/16 07:16:26;;;;;;;32.83;22.43;;;-0.10;99.90;;;;;;5018847;28;20218;-67
2021/12/16 07:18:54;;;;;;;39.93;24.50;;;-0.30;99.90;;;;;;5018740;28;20280;-68
2021/12/16 07:21:20;;;;;;;34.70;23.63;;;-0.20;99.90;;;;;;5028245;28;20272;-70
2021/12/16 07:23:46;;;;;;;30.67;23.63;;;-0.30;99.90;;;;;;5028447;28;20267;-72
2021/12/16 07:26:12;;;;;;;28.23;23.00;;;-0.10;99.90;;;;;;5038081;28;20176;-70
2021/12/16 07:28:38;;;;;;;36.00;23.50;;;0.00;99.90;;;;;;5037508;28;20176;-67
2021/12/16 07:31:04;;;;;;;30.77;24.00;;;-0.40;99.90;;;;;;5035274;28;20185;-69
2021/12/16 07:33:30;;;;;;;30.07;21.93;;;-0.50;99.90;;;;;;5038341;28;20180;-78
2021/12/16 07:35:56;;;;;;;27.50;21.37;;;-0.40;99.90;;;;;;5021368;28;20208;-70
2021/12/16 07:38:23;;;;;;;34.10;20.70;;;-0.50;99.90;;;;;;5018565;28;20588;-72
2021/12/16 07:40:52;;;;;;;29.20;21.27;;;-0.50;99.90;;;;;;5021710;28;20622;-67
2021/12/16 07:45:58;;;;;;;29.20;24.23;;;0.10;99.90;;;;;;5030924;28;20567;-74
2021/12/16 07:48:27;;;;;;;29.43;22.87;;;-0.10;99.90;;;;;;5034139;28;20160;-66
2021/12/16 07:50:57;;;;;;;36.40;24.67;;;-0.20;99.90;;;;;;5029934;28;20203;-68
2021/12/16 07:53:23;;;;;;;36.77;23.80;;;-0.60;99.90;;;;;;5036095;28;20188;-67
2021/12/16 07:55:49;;;;;;;29.57;23.97;;;-0.40;99.90;;;;;;5034852;28;20271;-67
2021/12/16 07:58:16;;;;;;;45.73;23.87;;;-0.20;99.90;;;;;;5036023;28;20188;-67
2021/12/16 08:00:42;;;;;;;37.73;23.80;;;-0.70;99.90;;;;;;5036669;28;20274;-70
2021/12/16 08:03:11;;;;;;;33.37;24.13;;;-0.60;99.90;;;;;;5036719;28;20169;-68
2021/12/16 08:05:44;;;;;;;29.40;21.40;;;-0.70;99.90;;;;;;5037179;28;20267;-68
2021/12/16 08:08:10;;;;;;;24.83;20.47;;;-0.70;99.90;;;;;;5036783;28;20586;-75
2021/12/16 08:10:37;;;;;;;29.33;22.77;;;-0.20;99.90;;;;;;5036171;28;20191;-75
2021/12/16 08:13:03;;;;;;;32.20;24.20;;;-0.90;99.90;;;;;;5031164;28;20188;-81
2021/12/16 08:15:31;;;;;;;27.40;22.10;;;-1.10;99.90;;;;;;5036533;28;20172;-70
2021/12/16 08:17:58;;;;;;;35.70;23.30;;;-1.60;99.90;;;;;;5037225;28;20179;-74
2021/12/16 08:20:24;;;;;;;33.00;23.63;;;-1.10;99.90;;;;;;5036832;28;20533;-71
2021/12/16 08:22:51;;;;;;;35.37;25.10;;;-1.50;99.90;;;;;;5035766;28;20185;-76
2021/12/16 08:25:20;;;;;;;29.20;23.83;;;-1.70;99.90;;;;;;5036790;28;20187;-70
2021/12/16 08:27:47;;;;;;;39.90;23.57;;;-1.40;99.90;;;;;;5035267;28;20593;-81
2021/12/16 08:30:17;;;;;;;31.27;23.47;;;-0.90;99.90;;;;;;5035357;28;20185;-82
2021/12/16 08:32:44;;;;;;;31.03;23.67;;;-0.80;99.90;;;;;;5036791;28;20161;-80
2021/12/16 08:35:11;;;;;;;36.10;23.77;;;-1.30;99.90;;;;;;5034496;28;20616;-85
2021/12/16 08:37:39;;;;;;;36.03;23.93;;;-1.00;99.90;;;;;;5034812;28;20188;-70
2021/12/16 08:40:09;;;;;;;37.63;22.57;;;-0.80;99.90;;;;;;5027258;28;20270;-71
2021/12/16 08:42:46;;;;;;;30.03;22.03;;;-0.80;99.90;;;;;;5030738;28;20186;-79
2021/12/16 08:45:23;;;;;;;34.43;25.67;;;-0.60;99.90;;;;;;5035246;28;20179;-70
2021/12/16 08:47:54;;;;;;;35.80;24.90;;;-0.60;99.90;;;;;;5035230;28;20172;-79
2021/12/16 08:50:27;;;;;;;36.43;24.50;;;-1.90;99.90;;;;;;5034947;28;20200;-75
2021/12/16 08:52:58;;;;;;;27.90;21.83;;;-2.20;99.90;;;;;;5036166;28;20187;-75
2021/12/16 08:55:30;;;;;;;35.33;22.40;;;-2.00;99.90;;;;;;5035749;28;20674;-76
2021/12/16 08:57:58;;;;;;;37.30;24.70;;;-1.60;99.90;;;;;;5031683;28;20172;-88
2021/12/16 09:00:29;;;;;;;34.07;22.50;;;-1.50;99.90;;;;;;5015270;28;20206;-81
2021/12/16 09:02:56;;;;;;;32.27;23.80;;;-1.80;99.90;;;;;;5034404;28;20184;-82
2021/12/16 09:05:23;;;;;;;31.53;24.63;;;-1.70;99.90;;;;;;5035779;28;20199;-69
2021/12/16 09:07:55;;;;;;;36.97;23.13;;;-1.80;99.90;;;;;;5035384;28;20184;-76
2021/12/16 09:10:31;;;;;;;31.30;22.37;;;-1.50;99.90;;;;;;5035182;28;20176;-80
2021/12/16 09:13:03;;;;;;;37.03;23.33;;;-1.40;99.90;;;;;;5035775;28;20192;-72
2021/12/16 09:15:46;;;;;;;29.10;22.80;;;-1.70;99.90;;;;;;5034890;28;20176;-73
2021/12/16 09:18:17;;;;;;;31.77;22.13;;;-1.60;99.90;;;;;;5035840;28;20244;-87
2021/12/16 09:20:42;;;;;;;29.37;21.83;;;-2.00;99.90;;;;;;5036293;28;20192;-77
2021/12/16 09:23:10;;;;;;;30.40;22.73;;;-1.80;99.90;;;;;;5035300;28;20184;-84
2021/12/16 09:25:36;;;;;;;36.53;22.30;;;-1.60;99.90;;;;;;5035016;28;20682;-75
2021/12/16 09:28:02;;;;;;;33.73;22.57;;;-1.60;99.90;;;;;;5036110;28;20263;-81
2021/12/16 09:30:30;;;;;;;40.90;24.63;;;-1.40;99.90;;;;;;5035192;28;20179;-76
2021/12/16 09:32:59;;;;;;;32.83;23.30;;;-1.60;99.90;;;;;;5035977;28;20180;-68
2021/12/16 09:35:27;;;;;;;30.33;22.93;;;-1.80;99.90;;;;;;5031958;28;20624;-81
2021/12/16 09:37:54;;;;;;;30.73;23.07;;;-1.50;99.90;;;;;;5031442;28;20181;-80
2021/12/16 09:40:24;;;;;;;25.07;21.10;;;-1.50;99.90;;;;;;5035390;28;20199;-85
2021/12/16 09:42:51;;;;;;;31.07;22.30;;;-0.80;99.90;;;;;;5034460;28;20295;-78
2021/12/16 09:45:18;;;;;;;35.07;22.60;;;-1.10;99.90;;;;;;5035664;28;20161;-84
2021/12/16 09:47:45;;;;;;;33.07;24.73;;;-1.00;99.90;;;;;;5035843;28;20228;-82
2021/12/16 09:50:16;;;;;;;32.30;23.00;;;-1.30;99.90;;;;;;5016914;28;20231;-73
2021/12/16 09:52:42;;;;;;;28.07;21.40;;;-1.10;99.90;;;;;;5014565;28;20185;-72
2021/12/16 09:55:09;;;;;;;27.23;21.63;;;-1.60;99.90;;;;;;5015796;28;20267;-68
2021/12/16 09:57:36;;;;;;;32.63;24.43;;;-1.50;99.90;;;;;;5022248;28;20191;-70
2021/12/16 10:00:06;;;;;;;31.93;23.40;;;-1.60;99.90;;;;;;5033858;28;20299;-73
2021/12/16 10:02:34;;;;;;;31.60;23.07;;;-1.20;99.90;;;;;;5035846;28;20247;-70
2021/12/16 10:05:01;;;;;;;26.43;22.00;;;-1.40;99.90;;;;;;5034400;28;20490;-72
2021/12/16 10:07:32;;;;;;;29.20;21.37;;;-1.30;99.90;;;;;;5035660;28;20535;-69
2021/12/16 10:10:00;;;;;;;34.50;21.43;;;-1.00;99.90;;;;;;5035150;28;20165;-69
2021/12/16 10:12:32;;;;;;;38.83;23.67;;;-1.30;99.90;;;;;;5034715;28;20161;-73
2021/12/16 10:17:32;;;;;;;36.97;24.63;;;-1.70;99.90;;;;;;5035100;28;20172;-75
2021/12/16 10:20:05;;;;;;;31.67;23.00;;;-1.60;99.90;;;;;;5035023;28;20200;-70
2021/12/16 10:22:38;;;;;;;38.70;25.43;;;-2.20;99.90;;;;;;5039204;28;20520;-68
2021/12/16 10:25:22;;;;;;;36.07;27.37;;;-1.90;99.90;;;;;;5037446;28;20161;-72
2021/12/16 10:27:59;;;;;;;33.67;25.07;;;-2.40;99.90;;;;;;5039478;28;20240;-70
2021/12/16 10:30:34;;;;;;;34.67;26.13;;;-1.60;99.90;;;;;;5038841;28;20183;-67
2021/12/16 10:33:11;;;;;;;31.93;24.33;;;-1.70;99.90;;;;;;5037380;28;20184;-69
2021/12/16 10:35:36;;;;;;;33.53;25.27;;;-1.70;99.90;;;;;;5038192;28;20200;-69
2021/12/16 10:38:06;;;;;;;31.83;23.60;;;-0.90;99.90;;;;;;5038535;28;20243;-68
2021/12/16 10:40:49;;;;;;;33.60;25.60;;;-1.30;99.90;;;;;;5038154;28;20203;-68
2021/12/16 10:43:42;;;;;;;36.87;25.67;;;-1.90;99.90;;;;;;5038535;28;20175;-68
2021/12/16 10:46:18;;;;;;;34.10;24.07;;;-1.50;99.90;;;;;;5037808;28;20164;-71
2021/12/16 10:48:47;;;;;;;38.87;25.23;;;-2.20;99.90;;;;;;5038618;28;20156;-69
2021/12/16 10:51:22;;;;;;;36.63;23.83;;;-1.20;99.90;;;;;;5018608;28;20189;-69
2021/12/16 10:54:00;;;;;;;42.00;24.30;;;-2.10;99.90;;;;;;5032717;28;20180;-69
2021/12/16 10:56:50;;;;;;;32.17;22.37;;;-1.40;99.90;;;;;;5035969;28;20195;-71
2021/12/16 10:59:19;;;;;;;36.87;23.80;;;-1.60;99.90;;;;;;5038137;28;20200;-70
2021/12/16 11:01:56;;;;;;;31.73;24.07;;;-1.90;99.90;;;;;;5031881;28;20257;-70
2021/12/16 11:04:37;;;;;;;33.63;23.03;;;-1.60;99.90;;;;;;5039541;28;20172;-70
2021/12/16 11:07:08;;;;;;;34.27;23.87;;;-1.60;99.90;;;;;;5037791;28;20168;-72
2021/12/16 11:09:48;;;;;;;32.63;22.20;;;-1.90;99.90;;;;;;5037860;28;20472;-74
2021/12/16 11:12:37;;;;;;;43.57;24.43;;;-1.00;99.90;;;;;;5029987;28;20307;-72
2021/12/16 11:15:09;;;;;;;37.93;20.87;;;-1.20;99.90;;;;;;5038261;28;20169;-70
2021/12/16 11:18:04;;;;;;;29.67;23.57;;;-1.70;99.90;;;;;;5038582;28;20164;-73
2021/12/16 11:20:36;;;;;;;34.17;22.97;;;-1.50;99.90;;;;;;5038044;28;20197;-71
2021/12/16 11:23:04;;;;;;;34.50;23.53;;;-1.70;99.90;;;;;;5036914;28;20192;-73
2021/12/16 11:25:38;;;;;;;35.10;22.50;;;-2.00;99.90;;;;;;5038168;28;20172;-73
2021/12/16 11:28:21;;;;;;;27.33;23.83;;;-1.70;99.90;;;;;;5035574;28;20479;-71
2021/12/16 11:30:57;;;;;;;29.50;21.17;;;-1.00;99.90;;;;;;5021984;28;20244;-71
2021/12/16 11:33:34;;;;;;;39.87;24.03;;;-1.20;99.90;;;;;;5030858;28;20204;-75
2021/12/16 11:36:26;;;;;;;35.73;21.77;;;-1.70;99.90;;;;;;5026260;28;20509;-70
2021/12/16 11:39:01;;;;;;;32.60;22.73;;;-1.50;99.90;;;;;;5024155;28;20254;-71
2021/12/16 11:41:45;;;;;;;37.43;23.03;;;-1.10;99.90;;;;;;5023934;28;20175;-83
2021/12/16 11:44:18;;;;;;;54.73;25.43;;;-1.00;99.90;;;;;;5022027;28;20581;-73
2021/12/16 11:46:54;;;;;;;33.00;24.40;;;-1.20;99.90;;;;;;5029054;28;20168;-71
2021/12/16 11:49:30;;;;;;;32.20;21.30;;;-1.40;99.90;;;;;;5030346;28;20575;-72
2021/12/16 11:51:56;;;;;;;31.03;23.77;;;-1.40;99.90;;;;;;5022353;28;20194;-71
2021/12/16 11:54:28;;;;;;;27.13;20.73;;;-1.80;99.90;;;;;;5025934;28;20314;-70
2021/12/16 11:57:13;;;;;;;31.57;22.10;;;-1.40;99.90;;;;;;5018290;28;20191;-72
2021/12/16 11:59:44;;;;;;;29.70;21.17;;;-1.70;99.90;;;;;;5017242;28;20219;-76
2021/12/16 12:02:35;;;;;;;34.67;22.90;;;-1.90;99.90;;;;;;5013154;28;20382;-75
2021/12/16 12:05:24;;;;;;;38.67;24.87;;;-1.40;99.90;;;;;;5014720;28;20180;-71
2021/12/16 12:07:55;;;;;;;31.43;22.20;;;-1.00;99.90;;;;;;5036799;28;20187;-74
2021/12/16 12:10:45;;;;;;;32.10;24.20;;;-1.60;99.90;;;;;;5039883;28;20230;-83
2021/12/16 12:13:22;;;;;;;29.63;21.13;;;-1.80;99.90;;;;;;5040355;28;20299;-71
2021/12/16 12:16:06;;;;;;;30.40;21.83;;;-1.10;99.90;;;;;;5035030;28;20183;-77
2021/12/16 12:18:44;;;;;;;34.97;23.03;;;-0.80;99.90;;;;;;5038906;28;20172;-79
2021/12/16 12:21:15;;;;;;;29.67;23.77;;;-0.70;99.90;;;;;;5036650;28;20260;-80
2021/12/16 12:23:43;;;;;;;30.83;23.30;;;-1.40;99.90;;;;;;5037616;28;20544;-73
2021/12/16 12:26:16;;;;;;;31.57;21.63;;;-1.40;99.90;;;;;;5037306;28;20211;-71
2021/12/16 12:28:47;;;;;;;29.27;21.27;;;-1.40;99.90;;;;;;5037265;28;20256;-73
2021/12/16 12:31:14;;;;;;;31.67;24.80;;;-1.10;99.90;;;;;;5038014;28;20227;-82
2021/12/16 12:33:40;;;;;;;29.63;22.63;;;-2.00;99.90;;;;;;5039615;28;20262;-81
2021/12/16 12:36:08;;;;;;;34.40;25.10;;;-2.00;99.90;;;;;;5038437;28;20634;-78
2021/12/16 12:38:36;;;;;;;32.30;22.20;;;-1.70;99.90;;;;;;5043146;28;20177;-80
2021/12/16 12:41:04;;;;;;;35.57;22.20;;;-1.60;99.90;;;;;;5046581;28;20201;-80
2021/12/16 12:43:33;;;;;;;37.77;21.87;;;-1.70;99.90;;;;;;5039161;28;20157;-83
2021/12/16 12:46:05;;;;;;;29.87;21.80;;;-1.30;99.90;;;;;;5038060;28;20168;-77
2021/12/16 12:48:36;;;;;;;26.40;21.00;;;-1.00;99.90;;;;;;5038839;28;20263;-82
2021/12/16 12:51:04;;;;;;;36.87;22.33;;;-0.90;99.90;;;;;;5035872;28;20198;-77
2021/12/16 12:53:50;;;;;;;32.80;23.47;;;-1.30;99.90;;;;;;5036962;28;20257;-73
2021/12/16 12:56:23;;;;;;;29.97;22.33;;;-1.20;99.90;;;;;;5035809;28;20172;-71
2021/12/16 12:58:49;;;;;;;29.17;23.07;;;-1.20;99.90;;;;;;5035600;28;20171;-81
2021/12/16 13:01:14;;;;;;;28.67;21.70;;;-1.50;99.90;;;;;;5035227;28;20287;-76
2021/12/16 13:03:41;;;;;;;28.90;23.43;;;-0.80;99.90;;;;;;5034215;28;20180;-84
2021/12/16 13:06:14;;;;;;;32.10;21.37;;;-0.90;99.90;;;;;;5029626;28;20174;-77
2021/12/16 13:08:47;;;;;;;31.30;22.67;;;-0.30;99.90;;;;;;5036293;28;20157;-78
2021/12/16 13:11:18;;;;;;;29.93;23.33;;;-0.20;99.90;;;;;;5035783;28;20191;-79
2021/12/16 13:14:20;;;;;;;33.67;24.43;;;0.10;99.90;;;;;;5035837;28;20153;-72
2021/12/16 13:28:26;;;;;;;40.97;24.00;;;-2.20;99.90;;;;;;5034364;28;20644;-77
2021/12/16 13:31:01;;;;;;;39.47;25.83;;;-1.70;99.90;;;;;;5034153;28;20203;-74
2021/12/16 13:33:40;;;;;;;36.37;25.43;;;-2.00;99.90;;;;;;5028951;28;20510;-77
2021/12/16 13:36:15;;;;;;;36.03;24.13;;;-2.30;99.90;;;;;;5027091;28;20231;-71
2021/12/16 13:38:48;;;;;;;34.50;23.23;;;-2.40;99.90;;;;;;5032697;28;20183;-72
2021/12/16 13:41:21;;;;;;;31.63;22.67;;;-2.30;99.90;;;;;;5034145;28;20231;-78
2021/12/16 13:44:03;;;;;;;29.30;21.33;;;-1.50;99.90;;;;;;5033369;28;20205;-78
2021/12/16 14:06:58;;;;;;;22.07;14.10;;;-1.00;99.90;;;;;;5027194;28;20548;-71
2021/12/16 14:09:31;;;;;;;19.63;15.33;;;-1.30;99.90;;;;;;5033160;28;20173;-70
2021/12/16 14:14:02;;;;;;;17.17;13.17;;;-1.20;99.90;;;;;;5034220;28;20201;-71
2021/12/16 14:15:16;;;;;;;21.10;14.40;;;-0.50;99.90;;;;;;5036498;28;20662;-73
2021/12/16 14:18:08;;;;;;;23.47;15.60;;;-1.20;99.90;;;;;;5034315;28;20204;-71
2021/12/16 14:23:35;;;;;;;25.60;16.10;;;-1.30;99.90;;;;;;5034785;28;20187;-81
2021/12/16 14:33:02;;;;;;;26.50;16.80;;;-1.30;99.90;;;;;;5034787;28;20238;-76
2021/12/16 14:48:35;;;;;;;19.87;16.37;;;-0.70;99.90;;;;;;5034965;28;20176;-85
2021/12/16 14:51:11;;;;;;;30.13;19.40;;;-0.50;99.90;;;;;;5035214;28;20180;-75
2021/12/16 14:53:43;;;;;;;33.63;17.53;;;-0.60;99.90;;;;;;5034599;28;20490;-84
2021/12/16 14:56:40;;;;;;;24.83;18.47;;;-1.00;99.90;;;;;;5034482;28;20180;-78
2021/12/16 14:59:11;;;;;;;26.93;17.30;;;-1.10;99.90;;;;;;5030076;28;20270;-83
2021/12/16 15:01:47;;;;;;;27.50;18.40;;;-1.60;99.90;;;;;;5026318;28;20165;-76
2021/12/16 15:04:16;;;;;;;27.13;17.17;;;-1.60;99.90;;;;;;5030897;28;20595;-72
2021/12/16 15:06:57;;;;;;;26.93;16.47;;;-1.30;99.90;;;;;;5037310;28;20495;-72
2021/12/16 15:09:31;;;;;;;18.27;15.97;;;-1.90;99.90;;;;;;5037166;28;20574;-72
2021/12/16 15:12:14;;;;;;;20.90;16.43;;;-1.30;99.90;;;;;;5038643;28;20536;-71
2021/12/16 15:45:27;;;;;;;24.43;19.07;;;-1.90;99.90;;;;;;5038232;28;20200;-71
2021/12/16 15:48:03;;;;;;;25.70;16.83;;;-2.10;99.90;;;;;;5037860;28;20517;-72
2021/12/16 15:50:35;;;;;;;27.90;20.77;;;-1.90;99.90;;;;;;5036065;28;20265;-70
2021/12/16 15:53:06;;;;;;;36.80;17.30;;;-1.40;99.90;;;;;;5033309;28;20217;-71
2021/12/16 15:55:40;;;;;;;23.97;17.17;;;-2.20;99.90;;;;;;5035044;28;20186;-75
2021/12/16 15:58:12;;;;;;;29.93;16.97;;;-1.80;99.90;;;;;;5025774;28;20209;-89
2021/12/16 16:00:42;;;;;;;32.30;19.43;;;-2.30;99.90;;;;;;5022880;28;20199;-79
2021/12/16 16:03:13;;;;;;;27.23;18.40;;;-2.10;99.90;;;;;;5037147;28;20488;-70
2021/12/16 16:05:44;;;;;;;22.90;17.80;;;-2.50;99.90;;;;;;5037012;28;20257;-70
2021/12/16 16:08:12;;;;;;;27.70;17.90;;;-2.30;99.90;;;;;;5037219;28;20162;-74
2021/12/16 16:10:41;;;;;;;30.50;19.17;;;-2.40;99.90;;;;;;5037206;28;20181;-70
2021/12/16 16:13:19;;;;;;;28.97;20.70;;;-2.60;99.90;;;;;;5037521;28;20161;-75
2021/12/16 16:15:48;;;;;;;34.77;20.50;;;-2.20;99.90;;;;;;5037393;28;20153;-72
2021/12/16 16:20:58;;;;;;;30.83;19.73;;;-2.60;99.90;;;;;;5030787;28;20196;-71
2021/12/16 16:23:25;;;;;;;32.10;20.77;;;-2.40;99.90;;;;;;5022269;28;20189;-70
2021/12/16 16:25:52;;;;;;;26.47;20.00;;;-2.40;99.90;;;;;;5036065;28;20169;-74
2021/12/16 16:28:21;;;;;;;29.20;21.57;;;-2.30;99.90;;;;;;5036664;28;20169;-71
2021/12/16 16:30:50;;;;;;;32.53;20.33;;;-2.60;99.90;;;;;;5036524;28;20468;-72
2021/12/16 16:33:20;;;;;;;34.23;23.07;;;-2.90;99.90;;;;;;5036131;28;20596;-76
2021/12/16 16:36:00;;;;;;;28.97;22.63;;;-3.00;99.90;;;;;;5036276;28;20498;-69
2021/12/16 16:38:48;;;;;;;28.57;20.53;;;-3.00;99.90;;;;;;5035003;28;20192;-69
2021/12/16 16:41:18;;;;;;;31.83;22.17;;;-3.00;99.90;;;;;;5036859;28;20197;-70
2021/12/16 16:44:03;;;;;;;29.77;21.40;;;-2.60;99.90;;;;;;5036281;28;20215;-82
2021/12/16 16:46:34;;;;;;;31.27;24.03;;;-3.00;99.90;;;;;;5034996;28;20184;-77
2021/12/16 16:49:05;;;;;;;32.03;21.27;;;-3.10;99.90;;;;;;5036441;28;20157;-75
2021/12/16 16:51:44;;;;;;;32.97;23.00;;;-3.20;99.90;;;;;;5036555;28;20181;-76